Time;durP1;ratioP1;P1;durP2;ratioP2;P2;SDS_P1;SDS_P2;PMS_P1;PMS_P2;Temp;Humidity;BMP_temperature;BMP_pressure;BME280_temperature;BME280_humidity;BME280_pressure;Samples;Min_cycle;Max_cycle;Signal;HPM_P1;HPM_P2
2022/04/16 00:01:13;;;;;;;2.00;1.90;;;;;;;10.25;65.19;99076.22;4975149;28;20223;-68
2022/04/16 00:03:41;;;;;;;1.80;1.70;;;;;;;10.32;65.25;99087.75;4975129;28;20208;-68
2022/04/16 00:06:07;;;;;;;2.30;1.40;;;;;;;10.25;64.60;99086.88;4974743;28;20208;-68
2022/04/16 00:08:34;;;;;;;1.77;1.67;;;;;;;10.13;65.38;99086.56;4974906;28;20242;-69
2022/04/16 00:11:01;;;;;;;1.67;1.57;;;;;;;10.07;66.08;99086.50;4974806;28;20227;-69
2022/04/16 00:13:29;;;;;;;1.70;1.60;;;;;;;10.13;65.59;99083.06;4975348;28;20219;-68
2022/04/16 00:15:55;;;;;;;1.80;1.70;;;;;;;10.02;66.06;99083.56;4974945;28;20215;-68
2022/04/16 00:18:22;;;;;;;1.70;1.60;;;;;;;9.96;66.28;99084.34;4974837;28;20228;-68
2022/04/16 00:20:51;;;;;;;1.67;1.57;;;;;;;10.13;65.56;99077.75;4974566;28;20217;-68
2022/04/16 00:23:19;;;;;;;1.70;1.60;;;;;;;10.06;65.37;99077.72;4974576;28;20751;-68
2022/04/16 00:25:46;;;;;;;1.67;1.57;;;;;;;10.09;65.03;99076.53;4974522;28;20207;-69
2022/04/16 00:28:13;;;;;;;1.60;1.50;;;;;;;9.96;65.44;99079.03;4974453;28;20263;-68
2022/04/16 00:30:40;;;;;;;1.70;1.60;;;;;;;9.95;65.76;99077.34;4974615;28;20224;-69
2022/04/16 00:33:08;;;;;;;1.60;1.50;;;;;;;9.88;66.30;99079.13;4974287;28;20211;-68
2022/04/16 00:35:35;;;;;;;2.17;1.80;;;;;;;9.82;66.43;99075.41;4974676;28;20211;-68
2022/04/16 00:38:01;;;;;;;1.70;1.60;;;;;;;9.93;66.03;99082.88;4974399;28;20653;-69
2022/04/16 00:40:28;;;;;;;1.87;1.60;;;;;;;9.73;67.22;99076.53;4974546;28;20231;-68
2022/04/16 00:42:54;;;;;;;1.57;1.47;;;;;;;9.70;67.25;99071.63;4974673;28;20295;-68
2022/04/16 00:45:21;;;;;;;1.67;1.57;;;;;;;9.66;67.23;99074.81;4974230;28;20211;-69
2022/04/16 00:47:57;;;;;;;2.10;1.60;;;;;;;9.79;66.61;99072.31;4977517;28;20231;-68
2022/04/16 00:50:24;;;;;;;1.73;1.50;;;;;;;9.65;66.92;99070.53;4978087;28;20254;-69
2022/04/16 00:52:51;;;;;;;2.17;1.50;;;;;;;9.76;66.56;99072.69;4978569;28;20211;-69
2022/04/16 00:55:18;;;;;;;1.90;1.50;;;;;;;9.76;66.90;99080.63;4978453;28;20208;-69
2022/04/16 00:57:45;;;;;;;1.53;1.43;;;;;;;9.64;67.52;99080.31;4978023;28;20232;-68
2022/04/16 01:00:14;;;;;;;1.50;1.40;;;;;;;9.70;66.64;99081.41;4978400;28;20250;-68
2022/04/16 01:02:42;;;;;;;1.50;1.40;;;;;;;9.75;66.68;99076.34;4978407;28;20212;-68
2022/04/16 01:05:12;;;;;;;2.13;1.57;;;;;;;9.64;66.93;99076.84;4978280;28;20222;-68
2022/04/16 01:07:53;;;;;;;1.33;1.23;;;;;;;9.71;67.06;99077.72;4978144;28;20255;-68
2022/04/16 01:10:25;;;;;;;1.80;1.70;;;;;;;9.62;67.24;99077.03;4977921;28;20772;-69
2022/04/16 01:12:52;;;;;;;1.50;1.40;;;;;;;9.65;67.34;99068.69;4978241;28;20196;-68
2022/04/16 01:15:20;;;;;;;2.17;1.67;;;;;;;9.62;67.72;99063.75;4978166;28;20208;-69
2022/04/16 01:17:48;;;;;;;1.50;1.40;;;;;;;9.60;67.33;99067.63;4978021;28;20315;-69
2022/04/16 01:20:16;;;;;;;2.10;1.60;;;;;;;9.48;68.26;99056.69;4977770;28;20208;-68
2022/04/16 01:22:43;;;;;;;1.50;1.40;;;;;;;9.47;67.77;99065.66;4978017;28;20204;-68
2022/04/16 01:25:09;;;;;;;1.63;1.53;;;;;;;9.42;67.86;99062.72;4977947;28;20303;-68
2022/04/16 01:27:36;;;;;;;1.43;1.33;;;;;;;9.34;68.28;99057.53;4977921;28;20254;-68
2022/04/16 01:30:04;;;;;;;1.80;1.70;;;;;;;9.33;68.19;99060.38;4977827;28;20334;-68
2022/04/16 01:32:33;;;;;;;1.67;1.57;;;;;;;9.33;68.46;99057.72;4977893;28;20575;-68
2022/04/16 01:35:00;;;;;;;3.13;1.70;;;;;;;9.27;68.49;99056.63;4977669;28;20208;-68
2022/04/16 01:37:31;;;;;;;1.80;1.70;;;;;;;9.22;68.49;99060.84;4977708;28;20310;-69
2022/04/16 01:39:59;;;;;;;1.97;1.80;;;;;;;9.41;67.53;99065.56;4977732;28;20203;-68
2022/04/16 01:42:25;;;;;;;1.60;1.50;;;;;;;9.34;68.23;99068.16;4977530;28;20591;-68
2022/04/16 01:44:52;;;;;;;1.53;1.43;;;;;;;9.28;68.48;99060.13;4977737;28;20204;-68
2022/04/16 01:47:19;;;;;;;1.87;1.77;;;;;;;9.34;68.05;99064.66;4977526;28;20228;-68
2022/04/16 01:49:46;;;;;;;1.50;1.40;;;;;;;9.33;67.36;99073.63;4978281;28;20577;-68
2022/04/16 01:52:13;;;;;;;1.87;1.60;;;;;;;9.24;68.25;99072.91;4978271;28;20262;-68
2022/04/16 01:54:41;;;;;;;1.83;1.73;;;;;;;9.17;68.46;99082.63;4977379;28;20728;-68
2022/04/16 01:57:07;;;;;;;1.70;1.60;;;;;;;9.20;68.05;99084.09;4977547;28;20290;-69
2022/04/16 01:59:34;;;;;;;1.80;1.70;;;;;;;9.12;68.74;99086.84;4977596;28;20208;-68
2022/04/16 02:02:00;;;;;;;1.60;1.50;;;;;;;9.15;68.20;99086.47;4977287;28;20235;-68
2022/04/16 02:04:28;;;;;;;2.07;1.53;;;;;;;9.13;68.96;99088.47;4977283;28;20207;-68
2022/04/16 02:06:54;;;;;;;1.97;1.77;;;;;;;9.16;68.23;99093.41;4977125;28;20263;-69
2022/04/16 02:09:21;;;;;;;1.80;1.70;;;;;;;9.04;69.41;99087.75;4977067;28;20215;-68
2022/04/16 02:11:47;;;;;;;1.77;1.67;;;;;;;8.96;69.20;99093.16;4977104;28;20215;-68
2022/04/16 02:14:13;;;;;;;1.93;1.83;;;;;;;9.08;68.72;99090.84;4977068;28;20212;-69
2022/04/16 02:16:40;;;;;;;1.80;1.70;;;;;;;9.09;68.82;99088.03;4976962;28;20212;-68
2022/04/16 02:19:06;;;;;;;1.90;1.80;;;;;;;8.95;69.47;99083.56;4976980;28;20274;-68
2022/04/16 02:21:33;;;;;;;1.73;1.63;;;;;;;8.99;69.32;99081.34;4976938;28;20204;-68
2022/04/16 02:24:00;;;;;;;1.83;1.63;;;;;;;8.93;69.35;99071.50;4976936;28;20208;-69
2022/04/16 02:26:26;;;;;;;2.27;2.10;;;;;;;8.85;69.95;99082.19;4976740;28;20207;-68
2022/04/16 02:28:53;;;;;;;3.33;1.80;;;;;;;8.78;70.72;99081.28;4976788;28;20254;-68
2022/04/16 02:31:23;;;;;;;1.70;1.57;;;;;;;8.71;70.92;99075.88;4976853;28;20236;-68
2022/04/16 02:33:50;;;;;;;3.60;2.10;;;;;;;8.78;70.31;99073.34;4976416;28;20635;-68
2022/04/16 02:36:16;;;;;;;2.27;2.07;;;;;;;8.72;70.51;99074.03;4976675;28;20572;-68
2022/04/16 02:38:42;;;;;;;2.00;1.80;;;;;;;8.66;71.41;99080.09;4976481;28;20231;-68
2022/04/16 02:41:09;;;;;;;2.13;2.00;;;;;;;8.65;71.09;99076.59;4976322;28;20234;-68
2022/04/16 02:43:35;;;;;;;1.80;1.70;;;;;;;8.76;70.45;99076.16;4976264;28;20570;-69
2022/04/16 02:48:51;;;;;;;2.30;2.10;;;;;;;8.78;70.33;99086.59;4939338;28;20209;-68
2022/04/16 02:51:18;;;;;;;2.60;1.90;;;;;;;8.65;70.98;99078.44;4976307;28;20216;-68
2022/04/16 02:53:44;;;;;;;2.20;2.00;;;;;;;8.70;70.21;99089.31;4976223;28;20715;-68
2022/04/16 02:56:10;;;;;;;2.53;2.33;;;;;;;8.64;70.88;99087.41;4976280;28;20208;-68
2022/04/16 02:58:37;;;;;;;2.03;1.93;;;;;;;8.55;71.17;99085.84;4976129;28;20232;-68
2022/04/16 03:01:03;;;;;;;3.60;1.90;;;;;;;8.58;71.10;99085.47;4976035;28;20258;-68
2022/04/16 03:03:30;;;;;;;2.33;2.10;;;;;;;8.48;71.67;99088.41;4975846;28;20212;-68
2022/04/16 03:05:57;;;;;;;2.20;2.10;;;;;;;8.40;72.01;99084.97;4975719;28;20208;-68
2022/04/16 03:08:24;;;;;;;2.20;2.00;;;;;;;8.52;71.41;99081.72;4975904;28;20235;-68
2022/04/16 03:10:51;;;;;;;2.60;2.20;;;;;;;8.40;71.94;99084.97;4975482;28;20228;-68
2022/04/16 03:13:17;;;;;;;2.17;1.97;;;;;;;8.49;71.58;99095.34;4976005;28;20574;-68
2022/04/16 03:18:28;;;;;;;2.33;2.17;;;;;;;8.48;71.41;99104.28;4975522;28;20270;-69
2022/04/16 03:20:54;;;;;;;2.50;2.30;;;;;;;8.44;71.43;99092.41;4975491;28;20211;-68
2022/04/16 03:23:21;;;;;;;2.83;1.93;;;;;;;8.54;71.91;99100.06;4975686;28;20262;-68
2022/04/16 03:25:48;;;;;;;2.00;1.90;;;;;;;8.68;71.27;99088.66;4975712;28;20204;-68
2022/04/16 03:28:15;;;;;;;2.17;2.07;;;;;;;8.54;72.41;99089.47;4975538;28;20239;-68
2022/04/16 03:30:42;;;;;;;2.20;2.00;;;;;;;8.52;72.26;99094.16;4975508;28;20224;-68
2022/04/16 03:33:09;;;;;;;3.17;1.90;;;;;;;8.49;72.66;99092.69;4975664;28;20215;-68
2022/04/16 03:35:36;;;;;;;2.33;2.13;;;;;;;8.55;73.16;99088.50;4975589;28;20255;-68
2022/04/16 03:38:03;;;;;;;2.53;2.33;;;;;;;8.52;74.08;99083.53;4975066;28;20995;-69
2022/04/16 03:40:29;;;;;;;2.23;2.10;;;;;;;8.40;74.50;99079.69;4974869;28;20579;-68
2022/04/16 03:43:00;;;;;;;2.17;2.03;;;;;;;8.41;75.61;99076.06;4975059;28;20666;-68
2022/04/16 03:45:32;;;;;;;3.00;2.23;;;;;;;8.19;75.87;99082.19;4975197;28;20208;-68
2022/04/16 03:48:00;;;;;;;2.27;2.07;;;;;;;8.12;75.80;99081.22;4975202;28;20687;-68
2022/04/16 03:50:29;;;;;;;2.30;2.10;;;;;;;8.05;75.62;99085.63;4975178;28;20235;-68
2022/04/16 03:52:56;;;;;;;2.30;2.10;;;;;;;7.97;76.00;99089.13;4975236;28;20208;-69
2022/04/16 04:00:58;;;;;;;2.37;2.20;;;;;;;7.83;77.08;99086.44;4975240;28;20171;-68
2022/04/16 04:03:25;;;;;;;2.27;2.07;;;;;;;7.73;78.15;99086.66;4975147;28;20208;-68
2022/04/16 04:05:54;;;;;;;2.20;1.93;;;;;;;7.69;77.46;99092.50;4974783;28;20204;-68
2022/04/16 04:08:22;;;;;;;2.50;2.30;;;;;;;7.67;77.89;99097.97;4974426;28;20715;-68
2022/04/16 04:10:49;;;;;;;2.50;2.30;;;;;;;7.88;75.35;99102.63;4975416;28;20224;-68
2022/04/16 04:13:17;;;;;;;2.57;2.00;;;;;;;7.89;74.50;99107.75;4974537;28;20226;-68
2022/04/16 04:15:43;;;;;;;2.40;2.20;;;;;;;8.00;74.56;99114.41;4974612;28;20671;-68
2022/04/16 04:18:10;;;;;;;2.80;2.60;;;;;;;7.93;74.54;99106.38;4974853;28;20231;-68
2022/04/16 04:20:36;;;;;;;2.50;2.30;;;;;;;8.04;73.83;99105.13;4974427;28;20208;-68
2022/04/16 04:23:06;;;;;;;5.77;2.47;;;;;;;8.07;74.13;99107.44;4974407;28;20208;-68
2022/04/16 04:25:32;;;;;;;4.27;2.73;;;;;;;8.14;74.10;99116.31;4974876;28;20208;-69
2022/04/16 04:27:59;;;;;;;5.07;2.47;;;;;;;8.07;74.48;99116.22;4974778;28;20254;-68
2022/04/16 04:30:25;;;;;;;2.73;2.53;;;;;;;8.24;73.81;99119.59;4974747;28;20231;-68
2022/04/16 04:32:52;;;;;;;2.20;2.10;;;;;;;8.40;72.86;99130.03;4974808;28;20575;-68
2022/04/16 04:35:18;;;;;;;2.83;2.63;;;;;;;8.24;73.51;99127.53;4974440;28;20207;-69
2022/04/16 04:37:45;;;;;;;2.90;2.70;;;;;;;8.34;73.31;99128.94;4974442;28;20342;-68
2022/04/16 04:40:12;;;;;;;3.33;2.40;;;;;;;8.34;73.14;99122.78;4974364;28;20212;-68
2022/04/16 04:42:38;;;;;;;2.80;2.60;;;;;;;8.28;73.70;99126.97;4974255;28;20651;-68
2022/04/16 04:45:13;;;;;;;3.30;2.80;;;;;;;8.20;73.90;99120.91;4974243;28;20687;-69
2022/04/16 04:47:40;;;;;;;2.70;2.40;;;;;;;8.18;74.34;99123.72;4974561;28;20224;-68
2022/04/16 04:50:07;;;;;;;3.20;2.70;;;;;;;8.20;75.66;99127.03;4974219;28;20212;-68
2022/04/16 04:52:36;;;;;;;2.87;2.67;;;;;;;8.32;74.22;99124.81;4974321;28;20675;-68
2022/04/16 04:55:06;;;;;;;3.03;2.70;;;;;;;8.44;72.91;99133.97;4974260;28;20570;-68
2022/04/16 04:57:33;;;;;;;2.77;2.57;;;;;;;8.51;72.48;99125.13;4974986;28;20232;-68
2022/04/16 04:59:59;;;;;;;2.80;2.60;;;;;;;8.51;73.46;99134.91;4974493;28;20214;-68
2022/04/16 05:02:25;;;;;;;2.90;2.20;;;;;;;8.50;73.69;99128.78;4973968;28;20549;-68
2022/04/16 05:04:52;;;;;;;2.40;2.20;;;;;;;8.52;73.13;99131.25;4974319;28;20230;-68
2022/04/16 05:07:18;;;;;;;2.73;2.53;;;;;;;8.62;72.31;99139.75;4973891;28;20238;-68
2022/04/16 05:09:44;;;;;;;2.57;2.37;;;;;;;8.53;72.71;99148.78;4973926;28;20215;-69
2022/04/16 05:12:11;;;;;;;2.70;2.43;;;;;;;8.47;72.46;99144.22;4974092;28;20238;-68
2022/04/16 05:14:37;;;;;;;2.10;2.00;;;;;;;8.44;72.59;99145.41;4974346;28;20208;-68
2022/04/16 05:17:04;;;;;;;3.10;2.70;;;;;;;8.26;73.57;99141.41;4974066;28;20228;-68
2022/04/16 05:19:30;;;;;;;3.30;3.00;;;;;;;8.36;73.21;99147.28;4973931;28;20215;-68
2022/04/16 05:21:57;;;;;;;3.37;2.70;;;;;;;8.43;72.63;99148.22;4974189;28;20211;-69
2022/04/16 05:24:23;;;;;;;2.90;2.57;;;;;;;8.28;74.03;99155.31;4974508;28;20223;-68
2022/04/16 05:26:49;;;;;;;2.90;2.70;;;;;;;8.31;74.25;99147.81;4974173;28;20238;-68
2022/04/16 05:29:17;;;;;;;2.90;2.70;;;;;;;8.34;72.75;99151.94;4974247;28;20204;-68
2022/04/16 05:31:43;;;;;;;2.90;2.60;;;;;;;8.37;72.19;99143.66;4974127;28;20252;-68
2022/04/16 05:34:22;;;;;;;4.73;2.87;;;;;;;8.53;73.65;99148.78;4977426;28;20215;-68
2022/04/16 05:36:51;;;;;;;2.60;2.40;;;;;;;8.47;72.17;99149.53;4977660;28;20231;-68
2022/04/16 05:39:18;;;;;;;2.63;2.43;;;;;;;8.47;72.10;99144.22;4977861;28;20219;-68
2022/04/16 05:41:45;;;;;;;2.77;2.57;;;;;;;8.53;73.01;99156.75;4977267;28;20208;-69
2022/04/16 05:44:11;;;;;;;2.70;2.50;;;;;;;8.46;72.22;99155.81;4977584;28;20207;-68
2022/04/16 05:46:38;;;;;;;3.47;3.00;;;;;;;8.31;72.64;99168.19;4977323;28;20219;-68
2022/04/16 05:49:04;;;;;;;2.57;2.37;;;;;;;8.40;72.75;99164.47;4977349;28;20203;-68
2022/04/16 05:51:31;;;;;;;2.90;2.70;;;;;;;8.43;73.46;99172.06;4977222;28;20698;-68
2022/04/16 05:53:58;;;;;;;3.37;2.57;;;;;;;8.40;73.57;99180.38;4977368;28;20216;-68
2022/04/16 05:56:25;;;;;;;3.40;2.93;;;;;;;8.40;74.11;99170.59;4976902;28;20218;-68
2022/04/16 05:58:51;;;;;;;3.50;2.87;;;;;;;8.38;73.19;99161.19;4977372;28;20263;-68
2022/04/16 06:01:18;;;;;;;3.67;2.93;;;;;;;8.45;73.62;99162.09;4976846;28;20204;-69
2022/04/16 06:03:45;;;;;;;3.10;2.80;;;;;;;8.72;72.51;99170.31;4977078;28;20214;-68
2022/04/16 06:06:11;;;;;;;2.80;2.60;;;;;;;8.59;73.17;99171.91;4976712;28;20242;-68
2022/04/16 06:08:38;;;;;;;3.23;2.90;;;;;;;8.68;73.44;99178.78;4976671;28;20228;-68
2022/04/16 06:11:05;;;;;;;3.30;3.00;;;;;;;8.75;72.92;99172.63;4976618;28;20710;-69
2022/04/16 06:13:32;;;;;;;3.50;3.20;;;;;;;8.85;73.03;99177.66;4977063;28;20258;-68
2022/04/16 06:15:59;;;;;;;3.43;3.13;;;;;;;8.84;72.45;99179.50;4977095;28;20229;-68
2022/04/16 06:18:27;;;;;;;3.23;2.93;;;;;;;8.85;72.56;99194.41;4976630;28;20440;-68
2022/04/16 06:20:58;;;;;;;2.97;2.70;;;;;;;8.94;71.72;99195.97;4976866;28;20660;-68
2022/04/16 06:23:31;;;;;;;3.93;2.70;;;;;;;8.96;72.25;99191.28;4976536;28;20247;-68
2022/04/16 06:26:00;;;;;;;3.63;3.33;;;;;;;8.89;71.59;99192.19;4976401;28;20206;-68
2022/04/16 06:28:29;;;;;;;3.87;3.50;;;;;;;8.91;72.37;99195.50;4976277;28;20234;-69
2022/04/16 06:30:59;;;;;;;3.40;3.10;;;;;;;9.10;71.37;99195.78;4976597;28;20238;-68
2022/04/16 06:33:28;;;;;;;2.93;2.73;;;;;;;8.89;71.50;99194.84;4976421;28;20211;-68
2022/04/16 06:35:55;;;;;;;4.27;3.33;;;;;;;8.96;71.87;99198.44;4976582;28;20218;-69
2022/04/16 06:38:21;;;;;;;3.57;3.27;;;;;;;8.96;72.65;99191.28;4976486;28;20319;-68
2022/04/16 06:40:48;;;;;;;3.73;3.10;;;;;;;9.07;71.75;99190.88;4976863;28;20220;-69
2022/04/16 06:43:14;;;;;;;3.77;3.33;;;;;;;9.19;71.20;99207.16;4976059;28;20224;-69
2022/04/16 06:45:41;;;;;;;3.20;2.93;;;;;;;9.15;72.37;99193.41;4975464;28;20230;-69
2022/04/16 06:48:08;;;;;;;3.83;3.43;;;;;;;9.08;71.54;99194.31;4976156;28;20314;-69
2022/04/16 06:50:34;;;;;;;3.30;3.00;;;;;;;9.16;71.67;99199.53;4975861;28;20750;-69
2022/04/16 06:53:00;;;;;;;3.50;3.20;;;;;;;9.14;72.59;99204.22;4976945;28;20215;-69
2022/04/16 06:55:27;;;;;;;3.20;3.00;;;;;;;9.15;72.71;99195.25;4975962;28;20208;-69
2022/04/16 06:57:53;;;;;;;3.57;3.13;;;;;;;9.01;73.01;99202.19;4975445;28;20244;-69
2022/04/16 07:00:19;;;;;;;3.73;3.43;;;;;;;9.34;71.81;99200.84;4975600;28;20211;-69
2022/04/16 07:02:46;;;;;;;3.37;3.07;;;;;;;9.11;72.08;99202.75;4975982;28;20230;-69
2022/04/16 07:05:12;;;;;;;4.00;3.13;;;;;;;9.33;72.09;99206.34;4975954;28;20211;-69
2022/04/16 07:07:39;;;;;;;3.80;3.40;;;;;;;9.25;71.71;99207.25;4975808;28;20230;-68
2022/04/16 07:10:09;;;;;;;3.50;3.20;;;;;;;9.28;72.91;99211.38;4975905;28;20208;-69
2022/04/16 07:12:36;;;;;;;4.03;3.57;;;;;;;9.23;72.15;99211.91;4975853;28;20266;-69
2022/04/16 07:15:02;;;;;;;4.03;3.50;;;;;;;9.43;71.81;99215.66;4975576;28;20245;-69
2022/04/16 07:17:29;;;;;;;4.57;3.20;;;;;;;9.62;70.96;99212.44;4975869;28;20228;-68
2022/04/16 07:19:55;;;;;;;4.80;4.03;;;;;;;9.75;70.36;99211.78;4975849;28;20569;-69
2022/04/16 07:22:22;;;;;;;3.27;2.97;;;;;;;9.70;70.69;99215.00;4975641;28;20231;-68
2022/04/16 07:24:49;;;;;;;5.57;3.87;;;;;;;9.55;70.57;99216.03;4975356;28;20207;-69
2022/04/16 07:27:16;;;;;;;3.80;3.50;;;;;;;9.47;72.26;99213.47;4975014;28;20234;-69
2022/04/16 07:29:42;;;;;;;4.50;3.83;;;;;;;9.73;70.77;99211.16;4975206;28;20219;-68
2022/04/16 07:32:09;;;;;;;4.20;3.80;;;;;;;9.97;71.06;99216.13;4975405;28;20224;-69
2022/04/16 07:34:35;;;;;;;4.60;4.07;;;;;;;9.65;71.33;99213.91;4975150;28;20689;-69
2022/04/16 07:37:02;;;;;;;5.03;4.27;;;;;;;9.77;70.92;99223.06;4975552;28;20235;-69
2022/04/16 07:39:28;;;;;;;5.30;3.80;;;;;;;9.88;70.33;99219.91;4975499;28;20256;-69
2022/04/16 07:41:54;;;;;;;6.23;4.60;;;;;;;9.64;71.92;99228.19;4975187;28;20212;-69
2022/04/16 07:44:21;;;;;;;5.47;3.90;;;;;;;9.72;72.13;99233.38;4974918;28;20216;-69
2022/04/16 07:46:47;;;;;;;4.67;4.17;;;;;;;9.91;73.25;99230.97;4975235;28;20227;-69
2022/04/16 07:49:13;;;;;;;4.00;3.70;;;;;;;10.12;70.90;99230.22;4975117;28;20211;-69
2022/04/16 07:51:40;;;;;;;4.90;4.13;;;;;;;10.20;71.10;99236.28;4975107;28;20306;-69
2022/04/16 07:54:06;;;;;;;4.37;3.97;;;;;;;10.37;70.37;99236.84;4975196;28;20208;-69
2022/04/16 07:56:33;;;;;;;4.37;3.97;;;;;;;10.48;70.47;99237.19;4974870;28;20208;-69
2022/04/16 07:59:00;;;;;;;5.40;4.60;;;;;;;10.32;69.13;99240.06;4974685;28;20211;-69
2022/04/16 08:01:27;;;;;;;4.47;4.17;;;;;;;10.39;69.06;99230.34;4974621;28;20208;-69
2022/04/16 08:03:57;;;;;;;5.60;4.37;;;;;;;10.39;69.68;99234.81;4974961;28;20212;-69
2022/04/16 08:06:24;;;;;;;4.83;4.30;;;;;;;10.42;68.50;99245.09;4974665;28;20306;-69
2022/04/16 08:08:50;;;;;;;5.00;4.20;;;;;;;10.52;70.58;99249.09;4974480;28;20306;-69
2022/04/16 08:11:17;;;;;;;4.80;4.30;;;;;;;10.52;69.96;99245.59;4975049;28;20228;-69
2022/04/16 08:13:43;;;;;;;4.83;4.40;;;;;;;10.28;70.29;99256.59;4974502;28;20212;-69
2022/04/16 08:16:13;;;;;;;5.07;4.57;;;;;;;10.63;70.26;99245.06;4974366;28;20690;-68
2022/04/16 08:18:40;;;;;;;5.67;4.77;;;;;;;10.63;70.02;99245.06;4974232;28;20714;-68
2022/04/16 08:21:06;;;;;;;4.90;4.30;;;;;;;10.63;69.99;99251.22;4974676;28;20577;-69
2022/04/16 08:23:43;;;;;;;5.60;4.80;;;;;;;10.85;68.40;99255.53;4974713;28;20212;-69
2022/04/16 08:26:11;;;;;;;5.40;4.90;;;;;;;10.96;68.04;99259.50;4974844;28;20211;-68
2022/04/16 08:28:37;;;;;;;5.27;4.40;;;;;;;10.86;70.17;99251.03;4974233;28;20239;-68
2022/04/16 08:31:04;;;;;;;5.80;5.20;;;;;;;10.69;69.05;99258.44;4973340;28;20217;-68
2022/04/16 08:33:30;;;;;;;5.33;4.83;;;;;;;10.96;67.83;99262.19;4974618;28;20208;-68
2022/04/16 08:35:57;;;;;;;5.97;5.20;;;;;;;11.07;68.81;99266.16;4974584;28;20207;-69
2022/04/16 08:38:23;;;;;;;5.07;4.57;;;;;;;10.80;68.90;99257.94;4974528;28;20238;-68
2022/04/16 08:40:50;;;;;;;5.53;5.03;;;;;;;10.57;69.58;99267.13;4974303;28;20216;-69
2022/04/16 08:43:17;;;;;;;5.53;5.03;;;;;;;10.59;70.38;99257.94;4974002;28;20255;-69
2022/04/16 08:45:44;;;;;;;5.57;5.07;;;;;;;10.89;70.16;99259.44;4974105;28;20218;-69
2022/04/16 08:48:14;;;;;;;5.40;4.90;;;;;;;10.96;68.69;99259.50;4974101;28;20238;-69
2022/04/16 08:50:40;;;;;;;6.27;4.83;;;;;;;11.07;70.69;99266.97;4974087;28;20669;-69
2022/04/16 08:53:07;;;;;;;5.93;5.33;;;;;;;11.47;68.42;99270.72;4973336;28;20239;-69
2022/04/16 08:55:33;;;;;;;4.93;4.53;;;;;;;11.73;65.72;99269.09;4974481;28;20207;-68
2022/04/16 08:57:59;;;;;;;7.40;4.90;;;;;;;11.72;64.11;99266.63;4973812;28;20238;-69
2022/04/16 09:00:26;;;;;;;5.77;5.27;;;;;;;11.48;64.58;99265.22;4974230;28;20208;-69
2022/04/16 09:02:58;;;;;;;6.20;5.60;;;;;;;11.70;64.20;99280.13;4974276;28;20200;-69
2022/04/16 09:05:28;;;;;;;7.07;6.27;;;;;;;11.58;64.87;99273.66;4974278;28;20207;-69
2022/04/16 09:07:59;;;;;;;6.10;5.60;;;;;;;11.23;65.95;99283.47;4975831;28;20235;-69
2022/04/16 09:10:28;;;;;;;7.13;6.17;;;;;;;11.39;65.78;99279.69;4977943;28;20563;-68
2022/04/16 09:12:57;;;;;;;6.23;5.63;;;;;;;11.36;65.36;99290.75;4978791;28;20227;-69
2022/04/16 09:15:25;;;;;;;7.17;6.47;;;;;;;11.04;66.96;99283.34;4977988;28;20210;-69
2022/04/16 09:18:06;;;;;;;7.27;6.30;;;;;;;11.05;67.16;99282.31;4977958;28;20291;-69
2022/04/16 09:20:38;;;;;;;7.53;6.83;;;;;;;11.01;67.09;99286.38;4977872;28;20204;-69
2022/04/16 09:23:21;;;;;;;9.27;7.00;;;;;;;10.82;68.70;99282.50;4977912;28;20207;-69
2022/04/16 09:25:49;;;;;;;8.07;7.27;;;;;;;11.22;67.77;99283.69;4977912;28;20196;-69
2022/04/16 09:28:17;;;;;;;8.17;7.40;;;;;;;11.31;67.23;99285.19;4977667;28;20749;-69
2022/04/16 09:30:52;;;;;;;8.10;7.30;;;;;;;11.38;65.63;99280.72;4977800;28;20215;-69
2022/04/16 09:33:18;;;;;;;7.43;6.73;;;;;;;11.40;66.30;99283.19;4977590;28;20231;-69
2022/04/16 09:35:46;;;;;;;8.87;7.07;;;;;;;11.31;65.80;99282.53;4977544;28;20207;-68
2022/04/16 09:38:14;;;;;;;7.30;6.13;;;;;;;11.44;66.21;99285.25;4977573;28;20238;-69
2022/04/16 09:40:41;;;;;;;7.60;6.70;;;;;;;11.46;65.38;99277.91;4977290;28;20318;-69
2022/04/16 09:43:08;;;;;;;7.10;6.40;;;;;;;11.38;67.06;99285.22;4977228;28;20202;-68
2022/04/16 09:45:39;;;;;;;7.67;6.87;;;;;;;11.25;66.32;99280.63;4977708;28;20203;-68
2022/04/16 09:48:10;;;;;;;7.43;6.73;;;;;;;11.32;67.22;99279.66;4976841;28;20587;-69
2022/04/16 09:50:40;;;;;;;7.33;6.63;;;;;;;11.45;66.35;99289.59;4977191;28;20256;-69
2022/04/16 09:53:07;;;;;;;7.47;6.77;;;;;;;11.25;66.98;99287.81;4976982;28;20255;-69
2022/04/16 09:55:34;;;;;;;7.20;6.50;;;;;;;11.27;66.10;99294.56;4977241;28;20215;-69
2022/04/16 09:58:02;;;;;;;7.93;7.13;;;;;;;11.29;66.49;99289.88;4977202;28;20230;-69
2022/04/16 10:00:30;;;;;;;6.60;6.00;;;;;;;11.37;64.58;99289.72;4977115;28;20270;-69
2022/04/16 10:02:56;;;;;;;7.13;6.33;;;;;;;11.53;63.90;99300.06;4977142;28;20206;-69
2022/04/16 10:05:24;;;;;;;7.33;6.57;;;;;;;11.39;63.69;99292.22;4977109;28;20300;-69
2022/04/16 10:07:52;;;;;;;6.50;5.90;;;;;;;11.79;62.66;99300.28;4977109;28;20273;-68
2022/04/16 10:10:25;;;;;;;7.27;6.30;;;;;;;12.06;60.88;99299.38;4976671;28;20704;-69
2022/04/16 10:13:00;;;;;;;6.50;5.90;;;;;;;11.73;62.35;99298.41;4976635;28;20212;-69
2022/04/16 10:15:48;;;;;;;7.37;6.13;;;;;;;12.29;61.57;99297.22;4977445;28;20191;-68
2022/04/16 10:18:15;;;;;;;6.70;6.00;;;;;;;12.25;60.45;99297.84;4976097;28;20232;-69
2022/04/16 10:20:52;;;;;;;6.50;5.90;;;;;;;12.34;60.80;99300.13;4975402;28;20219;-68
2022/04/16 10:23:40;;;;;;;8.73;6.90;;;;;;;12.13;60.64;99299.41;4976335;28;20206;-69
2022/04/16 10:26:09;;;;;;;7.90;6.50;;;;;;;12.23;60.19;99311.38;4976390;28;20200;-69
2022/04/16 10:28:54;;;;;;;9.20;6.63;;;;;;;12.44;59.49;99302.41;4976223;28;20770;-69
2022/04/16 10:31:32;;;;;;;7.43;6.73;;;;;;;12.42;60.26;99305.28;4976151;28;20211;-69
2022/04/16 10:34:07;;;;;;;6.93;6.23;;;;;;;12.24;60.66;99307.69;4977389;28;20239;-69
2022/04/16 10:36:37;;;;;;;7.93;7.10;;;;;;;12.61;58.74;99295.69;4976108;28;20713;-68
2022/04/16 10:39:17;;;;;;;8.33;6.70;;;;;;;12.81;59.45;99296.56;4976508;28;20204;-69
2022/04/16 10:41:56;;;;;;;7.13;6.43;;;;;;;12.93;59.39;99297.59;4976207;28;20217;-69
2022/04/16 10:44:24;;;;;;;4.67;4.27;;;;;;;12.66;54.28;99299.38;4976226;28;20208;-70
2022/04/16 10:46:52;;;;;;;5.50;5.00;;;;;;;12.72;56.05;99301.28;4976205;28;20232;-69
2022/04/16 10:49:24;;;;;;;5.53;5.03;;;;;;;12.70;56.54;99303.31;4976280;28;20212;-69
2022/04/16 10:51:52;;;;;;;4.63;4.20;;;;;;;12.89;56.04;99310.50;4976069;28;20208;-68
2022/04/16 10:54:32;;;;;;;5.37;4.73;;;;;;;13.04;54.68;99297.84;4976486;28;20211;-69
2022/04/16 10:56:59;;;;;;;5.53;5.03;;;;;;;12.87;55.18;99299.22;4975688;28;20225;-69
2022/04/16 10:59:45;;;;;;;5.17;4.70;;;;;;;12.95;53.83;99296.38;4975578;28;20213;-69
2022/04/16 11:02:19;;;;;;;4.53;4.00;;;;;;;12.82;52.84;99296.34;4975780;28;20560;-69
2022/04/16 11:05:07;;;;;;;4.07;3.70;;;;;;;13.12;51.79;99296.81;4976414;28;20197;-69
2022/04/16 11:07:36;;;;;;;3.47;3.17;;;;;;;13.27;50.90;99306.28;4975686;28;20234;-69
2022/04/16 11:10:06;;;;;;;4.00;3.60;;;;;;;13.19;52.00;99297.63;4975829;28;20660;-69
2022/04/16 11:12:33;;;;;;;4.37;3.70;;;;;;;13.25;52.31;99286.94;4976054;28;20226;-69
2022/04/16 11:15:00;;;;;;;4.30;3.90;;;;;;;13.33;52.58;99284.06;4975709;28;20224;-69
2022/04/16 11:17:27;;;;;;;4.93;4.47;;;;;;;13.23;53.87;99278.34;4975115;28;20710;-69
2022/04/16 11:20:06;;;;;;;4.30;3.90;;;;;;;13.47;52.35;99276.88;4975381;28;20209;-69
2022/04/16 11:22:33;;;;;;;5.67;4.80;;;;;;;13.05;52.67;99282.63;4976283;28;20209;-68
2022/04/16 11:25:01;;;;;;;5.03;4.53;;;;;;;12.96;52.28;99282.00;4975142;28;20668;-68
2022/04/16 11:36:05;;;;;;;4.70;3.63;;;;;;;12.88;52.21;99279.53;4975265;28;20244;-69
2022/04/16 11:38:33;;;;;;;4.37;3.87;;;;;;;13.43;48.34;99284.47;4974740;28;20242;-68
2022/04/16 11:41:01;;;;;;;3.50;3.20;;;;;;;12.96;48.67;99279.31;4974830;28;20216;-70
2022/04/16 11:43:29;;;;;;;3.70;3.40;;;;;;;13.26;48.17;99285.94;4974687;28;20211;-69
2022/04/16 11:45:56;;;;;;;4.10;3.80;;;;;;;13.10;48.46;99280.16;4975085;28;20671;-69
2022/04/16 11:48:23;;;;;;;3.90;3.57;;;;;;;13.12;50.06;99284.28;4974944;28;20233;-69
2022/04/16 11:50:50;;;;;;;4.13;3.73;;;;;;;13.17;49.56;99283.69;4974898;28;20212;-68
2022/04/16 11:53:16;;;;;;;4.20;3.77;;;;;;;13.25;49.74;99286.94;4974763;28;20720;-69
2022/04/16 11:55:46;;;;;;;4.27;3.87;;;;;;;13.09;49.73;99287.38;4974615;28;20665;-69
2022/04/16 11:58:14;;;;;;;4.50;4.03;;;;;;;13.11;50.44;99282.66;4974453;28;20226;-69
2022/04/16 12:00:53;;;;;;;4.00;3.67;;;;;;;13.13;48.69;99287.78;4974906;28;20209;-69
2022/04/16 12:03:19;;;;;;;4.43;3.90;;;;;;;13.02;48.74;99288.41;4974642;28;20214;-69